Time;durP1;ratioP1;P1;durP2;ratioP2;P2;SDS_P1;SDS_P2;PMS_P1;PMS_P2;Temp;Humidity;BMP_temperature;BMP_pressure;BME280_temperature;BME280_humidity;BME280_pressure;Samples;Min_cycle;Max_cycle;Signal;HPM_P1;HPM_P2
2024/03/22 14:34:58;;;;;;;1.60;1.50;;;21.90;1.00;;;;;;2611204;54;20454;-62
2024/03/22 14:37:24;;;;;;;1.83;1.73;;;21.90;1.00;;;;;;2610293;54;20420;-62
2024/03/22 14:39:49;;;;;;;1.70;1.60;;;21.90;1.00;;;;;;2611493;39;20940;-62
2024/03/22 14:42:15;;;;;;;1.37;1.33;;;21.90;1.00;;;;;;2612212;54;20197;-61
2024/03/22 14:44:41;;;;;;;1.50;1.40;;;21.90;1.00;;;;;;2611954;54;20696;-62
2024/03/22 14:47:07;;;;;;;2.07;1.97;;;21.90;1.00;;;;;;2611236;54;20171;-62
2024/03/22 14:49:33;;;;;;;1.80;1.70;;;21.90;1.00;;;;;;2611569;54;20192;-62
2024/03/22 14:51:58;;;;;;;1.80;1.70;;;22.00;1.00;;;;;;2612086;39;20606;-61
2024/03/22 14:54:25;;;;;;;1.73;1.63;;;22.00;1.00;;;;;;2612626;54;20566;-63
2024/03/22 14:56:53;;;;;;;1.70;1.60;;;22.00;1.00;;;;;;2611576;54;20235;-62
2024/03/22 14:59:20;;;;;;;1.80;1.70;;;22.00;1.00;;;;;;2610303;54;20435;-62
2024/03/22 15:01:45;;;;;;;2.00;1.90;;;22.00;1.00;;;;;;2611119;54;20450;-61
2024/03/22 15:04:12;;;;;;;1.70;1.60;;;22.00;1.00;;;;;;2612596;54;20427;-62
2024/03/22 15:06:38;;;;;;;1.60;1.50;;;22.00;1.00;;;;;;2611026;54;20162;-62
2024/03/22 15:09:09;;;;;;;1.60;1.50;;;22.00;1.00;;;;;;2612350;51;20439;-62
2024/03/22 15:11:36;;;;;;;1.60;1.50;;;22.00;1.00;;;;;;2610857;31;20948;-60
2024/03/22 15:14:02;;;;;;;1.80;1.70;;;22.00;1.00;;;;;;2611239;54;20431;-61
2024/03/22 15:16:28;;;;;;;1.83;1.73;;;22.00;1.00;;;;;;2612301;54;20388;-64
2024/03/22 15:18:54;;;;;;;1.63;1.53;;;22.00;1.00;;;;;;2613125;39;20919;-61
2024/03/22 15:21:20;;;;;;;1.70;1.60;;;22.10;1.00;;;;;;2612327;54;20427;-61
2024/03/22 15:23:47;;;;;;;1.70;1.60;;;22.10;1.00;;;;;;2611005;54;20174;-62
2024/03/22 15:26:12;;;;;;;1.80;1.70;;;22.10;1.00;;;;;;2612479;47;20167;-62
2024/03/22 15:28:40;;;;;;;1.80;1.70;;;22.10;1.00;;;;;;2612646;54;20523;-62
2024/03/22 15:31:06;;;;;;;1.70;1.60;;;22.10;1.00;;;;;;2612891;54;20154;-62
2024/03/22 15:33:32;;;;;;;1.90;1.80;;;22.00;1.00;;;;;;2612511;54;20942;-62
2024/03/22 15:35:58;;;;;;;1.90;1.80;;;22.00;1.00;;;;;;2628389;36;20489;-62
2024/03/22 15:38:24;;;;;;;2.00;1.90;;;22.00;1.00;;;;;;2612408;54;20158;-62
2024/03/22 15:40:51;;;;;;;1.90;1.80;;;22.00;1.00;;;;;;2612002;54;20205;-62
2024/03/22 15:43:17;;;;;;;2.00;1.90;;;22.00;1.00;;;;;;2613197;39;20471;-63
2024/03/22 15:45:43;;;;;;;2.20;2.10;;;22.00;1.00;;;;;;2612365;54;20466;-63
2024/03/22 15:48:09;;;;;;;2.10;2.00;;;22.00;1.00;;;;;;2612620;54;20435;-62
2024/03/22 15:50:36;;;;;;;1.90;1.80;;;22.00;1.00;;;;;;2610616;47;20167;-64
2024/03/22 15:53:02;;;;;;;1.80;1.70;;;22.10;1.00;;;;;;2612000;54;20173;-62
2024/03/22 15:55:29;;;;;;;2.10;2.00;;;22.10;1.00;;;;;;2611625;54;20450;-63
2024/03/22 15:57:55;;;;;;;2.10;2.00;;;22.10;1.00;;;;;;2611965;54;20470;-62
2024/03/22 16:00:22;;;;;;;2.10;2.00;;;22.00;1.00;;;;;;2611575;54;20419;-62
2024/03/22 16:02:51;;;;;;;2.17;2.07;;;22.00;1.00;;;;;;2611232;54;20431;-62
2024/03/22 16:05:17;;;;;;;2.07;1.97;;;22.00;1.00;;;;;;2611188;54;20465;-63
2024/03/22 16:07:48;;;;;;;2.40;2.30;;;22.00;1.00;;;;;;2611864;54;21806;-62
2024/03/22 16:10:14;;;;;;;2.43;2.33;;;22.00;1.00;;;;;;2612797;54;20458;-62
2024/03/22 16:12:39;;;;;;;3.20;3.10;;;22.00;1.00;;;;;;2611508;54;20427;-63
2024/03/22 16:15:05;;;;;;;2.90;2.80;;;22.00;1.00;;;;;;2612408;54;20176;-62
2024/03/22 16:17:32;;;;;;;2.70;2.60;;;22.00;1.00;;;;;;2611261;54;20190;-61
2024/03/22 16:19:58;;;;;;;2.70;2.60;;;22.00;1.00;;;;;;2612632;54;20446;-62
2024/03/22 16:22:24;;;;;;;2.87;2.77;;;22.00;1.00;;;;;;2611098;54;20462;-61
2024/03/22 16:24:50;;;;;;;3.67;3.57;;;22.00;1.00;;;;;;2612557;54;20182;-60
2024/03/22 16:27:16;;;;;;;2.07;1.97;;;22.00;1.00;;;;;;2610862;54;21030;-64
2024/03/22 16:29:42;;;;;;;2.67;2.57;;;22.00;1.00;;;;;;2611368;54;20435;-66
2024/03/22 16:32:11;;;;;;;2.50;2.40;;;22.30;1.00;;;;;;2611583;54;20163;-64
2024/03/22 16:34:37;;;;;;;2.40;2.30;;;22.50;1.00;;;;;;2611887;39;20508;-64
2024/03/22 16:37:02;;;;;;;2.00;1.90;;;22.70;1.00;;;;;;2612119;54;20522;-66
2024/03/22 16:39:28;;;;;;;2.10;2.00;;;22.80;1.00;;;;;;2612502;54;20858;-65
2024/03/22 16:41:54;;;;;;;2.40;2.30;;;22.80;1.00;;;;;;2613872;31;20668;-69
2024/03/22 16:44:19;;;;;;;2.20;2.10;;;22.80;1.00;;;;;;2611877;54;20151;-62
2024/03/22 16:46:45;;;;;;;2.50;2.40;;;23.00;1.00;;;;;;2610788;54;20719;-61
2024/03/22 16:49:11;;;;;;;2.53;2.43;;;23.20;1.00;;;;;;2612542;54;20170;-64
2024/03/22 16:51:38;;;;;;;2.70;2.60;;;23.50;1.00;;;;;;2611983;39;20504;-62
2024/03/22 16:54:05;;;;;;;3.17;3.07;;;23.70;1.00;;;;;;2611550;54;20162;-65
2024/03/22 16:56:30;;;;;;;2.80;2.70;;;24.00;1.00;;;;;;2611685;54;20466;-63
2024/03/22 16:58:56;;;;;;;3.30;3.20;;;24.20;1.00;;;;;;2612367;39;20478;-66
2024/03/22 17:01:22;;;;;;;3.10;3.00;;;24.30;1.00;;;;;;2611133;54;20142;-64
2024/03/22 17:03:48;;;;;;;3.20;3.10;;;24.50;1.00;;;;;;2611234;54;20315;-65
2024/03/22 17:06:13;;;;;;;3.60;3.50;;;24.60;1.00;;;;;;2612313;47;20252;-62
2024/03/22 17:08:40;;;;;;;3.93;3.83;;;24.80;1.00;;;;;;2611738;54;20430;-61
2024/03/22 17:11:06;;;;;;;3.20;3.10;;;25.00;1.00;;;;;;2611533;54;20743;-64
2024/03/22 17:13:31;;;;;;;3.80;3.70;;;25.30;1.00;;;;;;2611215;47;20437;-65
2024/03/22 17:15:58;;;;;;;3.07;2.97;;;25.50;1.00;;;;;;2612230;54;20968;-66
2024/03/22 17:18:27;;;;;;;3.80;3.70;;;25.80;1.00;;;;;;2611491;54;20714;-62
2024/03/22 17:20:53;;;;;;;4.73;4.53;;;26.00;1.00;;;;;;2611874;54;20433;-66
2024/03/22 17:23:19;;;;;;;3.37;3.27;;;26.20;1.00;;;;;;2612523;54;20993;-65
2024/03/22 17:25:45;;;;;;;2.90;2.80;;;26.40;1.00;;;;;;2612983;54;20418;-65
2024/03/22 17:28:10;;;;;;;3.23;3.13;;;26.50;1.00;;;;;;2612455;54;20722;-64
2024/03/22 17:30:36;;;;;;;2.73;2.63;;;26.70;1.00;;;;;;2612211;54;20162;-65
2024/03/22 17:33:02;;;;;;;5.67;5.37;;;26.90;1.00;;;;;;2612069;54;20266;-70
2024/03/22 17:35:29;;;;;;;2.03;1.93;;;27.20;1.00;;;;;;2610330;54;20159;-62
2024/03/22 17:37:57;;;;;;;2.53;2.43;;;27.40;1.00;;;;;;2611395;54;20438;-68
2024/03/22 17:40:25;;;;;;;3.53;3.43;;;27.70;1.00;;;;;;2611779;54;20472;-68
2024/03/22 17:42:51;;;;;;;5.50;5.30;;;27.90;1.00;;;;;;2611252;54;20430;-61
2024/03/22 17:45:17;;;;;;;3.40;3.30;;;28.10;1.00;;;;;;2611263;54;20447;-63
2024/03/22 17:47:46;;;;;;;3.30;3.20;;;28.30;1.00;;;;;;2612693;54;20431;-63
2024/03/22 17:50:11;;;;;;;5.07;4.87;;;28.40;1.00;;;;;;2613426;39;20619;-64
2024/03/22 17:52:37;;;;;;;3.47;3.37;;;28.50;1.00;;;;;;2612856;54;20431;-68
2024/03/22 17:55:04;;;;;;;3.40;3.30;;;28.60;1.00;;;;;;2612195;54;20162;-67
2024/03/22 17:57:31;;;;;;;3.70;3.60;;;28.70;1.00;;;;;;2612071;54;20465;-63
2024/03/22 17:59:57;;;;;;;2.07;1.97;;;28.80;1.00;;;;;;2612079;54;20506;-61
2024/03/22 18:02:23;;;;;;;1.60;1.50;;;28.80;1.00;;;;;;2612797;39;21317;-64
2024/03/22 18:04:49;;;;;;;1.57;1.50;;;28.70;1.00;;;;;;2613974;54;20424;-61
2024/03/22 18:07:15;;;;;;;1.30;1.30;;;28.60;1.00;;;;;;2613597;54;20435;-61
2024/03/22 18:09:40;;;;;;;3.67;3.37;;;28.50;1.00;;;;;;2613591;54;20234;-67
2024/03/22 18:12:07;;;;;;;2.00;1.90;;;28.50;1.00;;;;;;2613790;54;20206;-64
2024/03/22 18:14:33;;;;;;;2.00;1.90;;;28.60;1.00;;;;;;2612555;54;20162;-65
2024/03/22 18:17:01;;;;;;;2.07;1.97;;;28.70;1.00;;;;;;2612186;54;20455;-66
2024/03/22 18:19:27;;;;;;;1.60;1.50;;;28.80;1.00;;;;;;2612473;54;20430;-58
2024/03/22 18:21:54;;;;;;;1.67;1.57;;;28.90;1.00;;;;;;2612499;54;20439;-58
2024/03/22 18:24:21;;;;;;;1.60;1.50;;;28.90;1.00;;;;;;2612506;54;20424;-58
2024/03/22 18:26:47;;;;;;;1.70;1.60;;;28.90;1.00;;;;;;2612484;54;20454;-59
2024/03/22 18:29:13;;;;;;;1.77;1.67;;;28.90;1.00;;;;;;2612078;54;20428;-58
2024/03/22 18:31:38;;;;;;;2.10;2.00;;;28.80;1.00;;;;;;2612145;54;20451;-59
2024/03/22 18:34:05;;;;;;;1.80;1.70;;;28.80;1.00;;;;;;2612448;54;20282;-62
2024/03/22 18:36:31;;;;;;;1.80;1.70;;;28.80;1.00;;;;;;2612593;54;20198;-63
2024/03/22 18:38:56;;;;;;;1.83;1.73;;;28.80;1.00;;;;;;2611439;47;21052;-59
2024/03/22 18:41:23;;;;;;;1.80;1.70;;;28.80;1.00;;;;;;2611911;39;20621;-59
2024/03/22 18:43:50;;;;;;;1.80;1.70;;;28.80;1.00;;;;;;2612318;54;20190;-60
2024/03/22 18:46:17;;;;;;;0.80;0.80;;;28.80;1.00;;;;;;2611896;54;20486;-61
2024/03/22 18:48:43;;;;;;;1.00;1.00;;;28.80;1.00;;;;;;2612307;54;20431;-59
2024/03/22 18:51:10;;;;;;;1.20;1.20;;;28.70;1.00;;;;;;2611741;54;20972;-60
2024/03/22 18:53:36;;;;;;;1.00;1.00;;;28.60;1.00;;;;;;2612217;54;20435;-58
2024/03/22 18:56:05;;;;;;;1.50;1.40;;;28.50;1.00;;;;;;2611855;54;20428;-59
2024/03/22 18:58:31;;;;;;;1.80;1.70;;;28.40;1.00;;;;;;2611907;54;20530;-59
2024/03/22 19:00:56;;;;;;;1.80;1.70;;;28.50;1.00;;;;;;2611931;54;20973;-60
2024/03/22 19:03:22;;;;;;;1.70;1.60;;;28.60;1.00;;;;;;2612070;54;20174;-61
2024/03/22 19:05:49;;;;;;;1.57;1.47;;;28.60;1.00;;;;;;2612253;54;20265;-60
2024/03/22 19:08:15;;;;;;;1.60;1.50;;;28.80;1.00;;;;;;2612068;54;20201;-58
2024/03/22 19:10:41;;;;;;;1.70;1.60;;;28.90;1.00;;;;;;2612695;54;20416;-59
2024/03/22 19:13:07;;;;;;;1.80;1.70;;;28.90;1.00;;;;;;2610903;54;20150;-60
2024/03/22 19:15:33;;;;;;;4.70;4.50;;;29.00;1.00;;;;;;2612252;54;21182;-60
2024/03/22 19:18:01;;;;;;;1.93;1.83;;;29.10;1.00;;;;;;2612174;54;20676;-59
2024/03/22 19:20:27;;;;;;;2.43;2.33;;;29.20;1.00;;;;;;2612105;54;21059;-59
2024/03/22 19:22:52;;;;;;;1.60;1.50;;;29.20;1.00;;;;;;2612035;54;20427;-59
2024/03/22 19:25:18;;;;;;;1.40;1.40;;;29.20;1.00;;;;;;2612542;54;20684;-57
2024/03/22 19:27:44;;;;;;;1.90;1.80;;;29.20;1.00;;;;;;2611252;54;20242;-60
2024/03/22 19:30:10;;;;;;;2.10;2.00;;;29.20;1.00;;;;;;2612546;47;20189;-58
2024/03/22 19:32:37;;;;;;;1.40;1.40;;;29.10;1.00;;;;;;2612484;54;21489;-62
2024/03/22 19:35:03;;;;;;;1.30;1.30;;;29.20;1.00;;;;;;2612418;54;20964;-62
2024/03/22 19:37:29;;;;;;;1.80;1.70;;;29.00;1.00;;;;;;2611962;54;20456;-62
2024/03/22 19:39:55;;;;;;;1.60;1.50;;;29.00;1.00;;;;;;2612667;54;20543;-61
2024/03/22 19:42:22;;;;;;;3.43;3.23;;;28.90;1.00;;;;;;2611689;54;20151;-60
2024/03/22 19:44:48;;;;;;;1.93;1.83;;;28.90;1.00;;;;;;2611887;54;20190;-61
2024/03/22 19:47:14;;;;;;;2.27;2.17;;;28.90;1.00;;;;;;2612294;54;20443;-61
2024/03/22 19:49:40;;;;;;;2.67;2.57;;;28.90;1.00;;;;;;2612324;54;20435;-61
2024/03/22 19:52:06;;;;;;;1.80;1.70;;;28.80;1.00;;;;;;2612455;39;21175;-62
2024/03/22 19:54:32;;;;;;;3.40;3.30;;;28.80;1.00;;;;;;2611842;54;20166;-65
2024/03/22 19:56:59;;;;;;;1.87;1.77;;;28.70;1.00;;;;;;2612188;39;20793;-62
2024/03/22 19:59:24;;;;;;;1.50;1.40;;;28.70;1.00;;;;;;2612649;54;20474;-60
2024/03/22 20:01:52;;;;;;;1.80;1.70;;;28.60;1.00;;;;;;2611659;54;20415;-59
2024/03/22 20:04:17;;;;;;;2.80;2.67;;;28.60;1.00;;;;;;2612407;47;20242;-62
2024/03/22 20:06:44;;;;;;;1.10;1.10;;;28.60;1.00;;;;;;2612366;39;20789;-60
2024/03/22 20:09:11;;;;;;;1.30;1.20;;;28.70;1.00;;;;;;2612111;47;20191;-60
2024/03/22 20:11:37;;;;;;;1.60;1.50;;;28.70;1.00;;;;;;2612038;31;20969;-60
2024/03/22 20:14:03;;;;;;;0.90;0.90;;;28.80;1.00;;;;;;2611864;54;21060;-62
2024/03/22 20:16:29;;;;;;;1.00;1.00;;;28.80;1.00;;;;;;2613342;31;20941;-63
2024/03/22 20:18:55;;;;;;;1.00;1.00;;;28.90;1.00;;;;;;2612430;54;20419;-63
2024/03/22 20:21:21;;;;;;;0.90;0.90;;;29.00;1.00;;;;;;2611775;54;20183;-65
2024/03/22 20:23:46;;;;;;;1.00;1.00;;;29.10;1.00;;;;;;2612259;54;20242;-63
2024/03/22 20:26:12;;;;;;;1.10;1.10;;;29.20;1.00;;;;;;2613087;54;20241;-63
2024/03/22 20:28:38;;;;;;;1.27;1.27;;;29.20;1.00;;;;;;2613219;54;20147;-63
2024/03/22 20:31:04;;;;;;;0.93;0.93;;;29.20;1.00;;;;;;2612896;54;20167;-65
2024/03/22 20:33:29;;;;;;;3.37;3.17;;;29.20;1.00;;;;;;2612890;54;20162;-64
2024/03/22 20:35:55;;;;;;;1.00;1.00;;;29.20;1.00;;;;;;2613414;54;20189;-64
2024/03/22 20:38:22;;;;;;;1.10;1.10;;;29.20;1.00;;;;;;2613166;54;20158;-64
2024/03/22 20:40:48;;;;;;;2.50;2.30;;;29.20;1.00;;;;;;2613453;54;20162;-61
2024/03/22 20:43:15;;;;;;;0.97;0.97;;;29.20;1.00;;;;;;2611744;54;20454;-64
2024/03/22 20:45:42;;;;;;;1.30;1.30;;;29.30;1.00;;;;;;2613421;54;20420;-66
2024/03/22 20:48:08;;;;;;;1.20;1.20;;;29.20;1.00;;;;;;2612703;54;20981;-65
2024/03/22 20:50:42;;;;;;;2.63;2.53;;;29.20;1.00;;;;;;2612842;54;20427;-63
2024/03/22 20:53:13;;;;;;;0.80;0.80;;;29.20;1.00;;;;;;2613416;46;20441;-65
2024/03/22 20:55:40;;;;;;;1.57;1.47;;;29.00;1.00;;;;;;2612292;39;20814;-64
2024/03/22 20:58:07;;;;;;;1.10;1.10;;;28.90;1.00;;;;;;2612637;54;20526;-61
2024/03/22 21:00:33;;;;;;;1.30;1.30;;;28.80;1.00;;;;;;2612275;54;20435;-65
2024/03/22 21:03:00;;;;;;;0.90;0.90;;;28.80;1.00;;;;;;2611302;47;20428;-60
2024/03/22 21:05:27;;;;;;;2.30;2.20;;;28.70;1.00;;;;;;2612265;54;20428;-59
2024/03/22 21:07:53;;;;;;;0.70;0.70;;;28.70;1.00;;;;;;2609413;54;20431;-62
2024/03/22 21:10:20;;;;;;;0.60;0.60;;;28.70;1.00;;;;;;2612296;54;20431;-63
2024/03/22 21:12:47;;;;;;;1.70;1.60;;;28.50;1.00;;;;;;2611236;54;20434;-62
2024/03/22 21:15:14;;;;;;;1.50;1.50;;;28.50;1.00;;;;;;2612178;47;20436;-63
2024/03/22 21:17:41;;;;;;;1.70;1.60;;;28.50;1.00;;;;;;2612443;54;20965;-68
2024/03/22 21:20:08;;;;;;;1.70;1.60;;;28.50;1.00;;;;;;2613237;54;20434;-68
2024/03/22 21:22:34;;;;;;;1.57;1.50;;;28.50;1.00;;;;;;2612945;54;20431;-62
2024/03/22 21:25:02;;;;;;;1.90;1.80;;;28.40;1.00;;;;;;2611726;39;21440;-65
2024/03/22 21:27:28;;;;;;;1.67;1.60;;;28.40;1.00;;;;;;2612615;39;20808;-62
2024/03/22 21:29:56;;;;;;;1.70;1.60;;;28.40;1.00;;;;;;2612995;54;20438;-59
2024/03/22 21:32:25;;;;;;;1.70;1.60;;;28.30;1.00;;;;;;2612326;54;20454;-70
2024/03/22 21:34:52;;;;;;;2.30;2.20;;;28.30;1.00;;;;;;2612514;54;20510;-70
2024/03/22 21:37:18;;;;;;;2.50;2.40;;;28.20;1.00;;;;;;2612457;54;20434;-61
2024/03/22 21:39:47;;;;;;;2.00;1.90;;;28.10;1.00;;;;;;2613272;47;20459;-63
2024/03/22 21:42:13;;;;;;;2.10;2.00;;;28.10;1.00;;;;;;2612471;54;20430;-62
2024/03/22 21:44:40;;;;;;;1.97;1.87;;;28.00;1.00;;;;;;2612716;54;20474;-61
2024/03/22 21:47:08;;;;;;;2.10;2.00;;;27.90;1.00;;;;;;2612469;54;20443;-62
2024/03/22 21:49:35;;;;;;;1.80;1.70;;;27.90;1.00;;;;;;2612422;54;20420;-62
2024/03/22 21:52:01;;;;;;;1.90;1.80;;;27.90;1.00;;;;;;2611867;54;20443;-62
2024/03/22 21:54:28;;;;;;;1.90;1.80;;;27.80;1.00;;;;;;2612850;54;20514;-61
2024/03/22 21:56:56;;;;;;;1.77;1.67;;;27.80;1.00;;;;;;2611755;54;20407;-60
2024/03/22 21:59:22;;;;;;;1.50;1.40;;;27.80;1.00;;;;;;2611552;54;20424;-59
2024/03/22 22:01:50;;;;;;;1.70;1.60;;;27.70;1.00;;;;;;2611396;54;20392;-63
2024/03/22 22:04:16;;;;;;;0.60;0.40;;;27.70;1.00;;;;;;2611290;54;20422;-64
2024/03/22 22:06:43;;;;;;;1.33;1.23;;;27.60;1.00;;;;;;2611184;54;20423;-66
2024/03/22 22:09:09;;;;;;;0.90;0.90;;;27.30;1.00;;;;;;2612191;54;20424;-64
2024/03/22 22:11:36;;;;;;;0.80;0.80;;;27.20;1.00;;;;;;2611930;54;20409;-69
2024/03/22 22:14:03;;;;;;;0.70;0.70;;;27.30;1.00;;;;;;2613091;39;20901;-82
2024/03/22 22:16:29;;;;;;;0.90;0.90;;;27.30;1.00;;;;;;2624421;54;20387;-81
2024/03/22 22:19:28;;;;;;;0.97;0.97;;;27.30;1.00;;;;;;2622087;54;20417;-82
2024/03/22 22:22:29;;;;;;;0.93;0.93;;;27.40;1.00;;;;;;2619175;54;20502;-79
2024/03/22 22:25:29;;;;;;;0.60;0.40;;;27.40;1.00;;;;;;2617419;54;20537;-89
2024/03/22 22:38:59;;;;;;;1.20;1.20;;;27.40;1.00;;;;;;2618247;54;20375;-77
2024/03/22 22:42:00;;;;;;;1.20;1.20;;;27.50;1.00;;;;;;2618333;54;20406;-77
2024/03/22 22:54:41;;;;;;;0.60;0.40;;;28.00;1.00;;;;;;2610613;54;20260;-64
2024/03/22 22:57:07;;;;;;;0.60;0.40;;;27.70;1.00;;;;;;2613927;54;20562;-64
2024/03/22 22:59:34;;;;;;;1.67;1.57;;;27.20;1.00;;;;;;2613998;47;20431;-64
2024/03/22 23:02:01;;;;;;;1.20;1.10;;;26.80;1.00;;;;;;2612808;46;20441;-64
2024/03/22 23:04:28;;;;;;;0.70;0.60;;;26.50;1.00;;;;;;2614480;46;20403;-65
2024/03/22 23:06:55;;;;;;;0.60;0.30;;;26.30;1.00;;;;;;2615418;46;20445;-65
2024/03/22 23:09:22;;;;;;;0.70;0.40;;;26.10;1.00;;;;;;2616153;54;20453;-64
2024/03/22 23:11:48;;;;;;;1.73;1.63;;;25.90;1.00;;;;;;2614641;54;20418;-65
2024/03/22 23:14:15;;;;;;;0.60;0.40;;;25.80;1.00;;;;;;2614347;54;20423;-64
2024/03/22 23:16:41;;;;;;;0.83;0.77;;;25.70;1.00;;;;;;2615203;54;20438;-64
2024/03/22 23:19:08;;;;;;;0.60;0.40;;;25.60;1.00;;;;;;2613330;46;20431;-65
2024/03/22 23:21:35;;;;;;;1.33;1.23;;;25.60;1.00;;;;;;2615048;54;20419;-65
2024/03/22 23:24:02;;;;;;;0.60;0.37;;;25.50;1.00;;;;;;2613745;54;20427;-64
2024/03/22 23:26:29;;;;;;;0.60;0.40;;;25.50;1.00;;;;;;2614762;38;21044;-64
2024/03/22 23:28:56;;;;;;;16.30;3.13;;;25.40;1.00;;;;;;2612799;54;21225;-63
2024/03/22 23:31:22;;;;;;;0.60;0.40;;;25.30;1.00;;;;;;2611954;54;20395;-63
2024/03/22 23:33:49;;;;;;;0.60;0.40;;;25.30;1.00;;;;;;2613202;54;21308;-64
2024/03/22 23:36:19;;;;;;;0.60;0.40;;;25.30;1.00;;;;;;2610186;54;20538;-63
2024/03/22 23:38:46;;;;;;;0.50;0.30;;;25.20;1.00;;;;;;2612650;47;20457;-64
2024/03/22 23:41:13;;;;;;;0.60;0.50;;;25.20;1.00;;;;;;2612455;47;20425;-64
2024/03/22 23:43:40;;;;;;;0.60;0.40;;;25.10;1.00;;;;;;2612681;54;20415;-64
2024/03/22 23:46:10;;;;;;;0.57;0.30;;;25.10;1.00;;;;;;2613040;54;21366;-64
2024/03/22 23:48:36;;;;;;;0.60;0.33;;;25.00;1.00;;;;;;2609890;54;20418;-65
2024/03/22 23:51:03;;;;;;;0.60;0.40;;;25.00;1.00;;;;;;2611910;54;20426;-64
2024/03/22 23:53:29;;;;;;;0.60;0.40;;;24.90;1.00;;;;;;2610929;47;20473;-65
2024/03/22 23:55:56;;;;;;;2.10;2.00;;;24.90;1.00;;;;;;2610222;54;20469;-65
2024/03/22 23:58:23;;;;;;;0.70;0.60;;;24.90;1.00;;;;;;2612059;46;20457;-64
